createdAt,value
2023-03-05T00:00:41.780Z,1.47
2023-03-05T00:11:13.542Z,1.02
2023-03-05T00:21:40.952Z,0.97
2023-03-05T00:32:02.409Z,1.50
2023-03-05T00:42:23.663Z,0.60
2023-03-05T00:52:45.367Z,1.53
2023-03-05T01:03:07.050Z,0.93
2023-03-05T01:13:28.634Z,0.67
2023-03-05T01:23:50.072Z,0.60
2023-03-05T01:34:11.532Z,0.80
2023-03-05T01:44:34.396Z,0.70
2023-03-05T01:55:00.032Z,1.38
2023-03-05T02:05:35.106Z,0.87
2023-03-05T02:15:59.798Z,0.80
2023-03-05T02:26:21.412Z,0.80
2023-03-05T02:36:42.882Z,0.90
2023-03-05T02:47:04.355Z,1.13
2023-03-05T02:57:26.874Z,0.93
2023-03-05T03:07:50.233Z,0.77
2023-03-05T03:18:11.780Z,0.83
2023-03-05T03:28:33.079Z,0.80
2023-03-05T03:38:54.034Z,0.80
2023-03-05T03:49:20.062Z,1.00
2023-03-05T03:59:41.446Z,1.03
2023-03-05T04:10:03.689Z,0.60
2023-03-05T04:20:26.204Z,0.67
2023-03-05T04:30:47.995Z,0.73
2023-03-05T04:41:09.273Z,0.70
2023-03-05T04:51:30.594Z,0.80
2023-03-05T05:01:52.165Z,0.73
2023-03-05T05:12:13.418Z,0.60
2023-03-05T05:22:35.368Z,1.55
2023-03-05T05:32:57.200Z,1.50
2023-03-05T05:43:18.618Z,0.60
2023-03-05T05:53:40.338Z,1.17
2023-03-05T06:04:02.495Z,1.30
2023-03-05T06:14:07.560Z,0.97
2023-03-05T06:24:29.227Z,1.23
2023-03-05T06:34:51.469Z,1.30
2023-03-05T06:45:12.820Z,1.00
2023-03-05T06:55:39.764Z,1.27
2023-03-05T07:06:06.454Z,0.90
2023-03-05T07:16:31.674Z,1.00
2023-03-05T07:26:52.878Z,2.83
2023-03-05T07:37:14.462Z,0.90
2023-03-05T07:47:36.803Z,1.00
2023-03-05T07:57:58.341Z,1.27
2023-03-05T08:08:19.440Z,0.70
2023-03-05T08:18:41.841Z,0.77
2023-03-05T08:29:03.394Z,0.97
2023-03-05T08:39:24.542Z,1.10
2023-03-05T08:49:46.404Z,1.20
2023-03-05T09:00:10.218Z,1.20
2023-03-05T09:10:31.537Z,0.80
2023-03-05T09:20:54.199Z,1.25
2023-03-05T09:31:15.903Z,1.02
2023-03-05T09:42:04.814Z,1.03
2023-03-05T09:52:36.832Z,0.70
2023-03-05T10:03:06.528Z,0.70
2023-03-05T10:13:37.335Z,1.37
2023-03-05T10:24:16.812Z,1.00
2023-03-05T10:35:01.974Z,0.73
2023-03-05T10:45:41.931Z,1.73
2023-03-05T10:56:05.839Z,1.13
2023-03-05T11:06:39.459Z,1.55
2023-03-05T11:17:25.658Z,1.77
2023-03-05T11:27:58.014Z,0.90
2023-03-05T11:38:25.164Z,0.90
2023-03-05T11:48:47.011Z,1.73
2023-03-05T11:59:23.798Z,1.07
2023-03-05T12:09:53.368Z,0.90
2023-03-05T12:20:33.887Z,1.55
2023-03-05T12:31:00.075Z,1.40
2023-03-05T12:41:25.433Z,1.87
2023-03-05T12:51:53.538Z,1.33
2023-03-05T13:02:23.909Z,1.67
2023-03-05T13:12:53.168Z,1.50
2023-03-05T13:23:15.267Z,1.07
2023-03-05T13:33:37.369Z,1.40
2023-03-05T13:44:01.719Z,1.90
2023-03-05T13:54:25.235Z,1.90
2023-03-05T14:04:47.626Z,2.45
2023-03-05T14:15:23.005Z,1.53
2023-03-05T14:25:44.482Z,2.03
2023-03-05T14:36:07.297Z,2.03
2023-03-05T14:46:29.704Z,1.73
2023-03-05T14:56:51.778Z,2.40
2023-03-05T15:07:26.462Z,1.87
2023-03-05T15:17:55.071Z,1.75
2023-03-05T15:28:17.210Z,3.70
2023-03-05T15:38:38.964Z,3.37
2023-03-05T15:49:01.162Z,2.70
2023-03-05T15:59:22.784Z,3.57
2023-03-05T16:09:48.270Z,2.30
2023-03-05T16:20:11.899Z,5.07
2023-03-05T16:30:36.151Z,2.17
2023-03-05T16:41:07.812Z,5.70
2023-03-05T16:51:30.936Z,5.90
2023-03-05T17:01:52.426Z,5.60
2023-03-05T17:12:13.823Z,4.03
2023-03-05T17:22:35.637Z,4.53
2023-03-05T17:32:57.430Z,7.03
2023-03-05T17:43:19.020Z,3.93
2023-03-05T17:53:41.266Z,7.43
2023-03-05T18:04:03.263Z,4.15
2023-03-05T18:14:07.097Z,3.93
2023-03-05T18:24:28.583Z,4.60
2023-03-05T18:34:50.691Z,6.00
2023-03-05T18:45:16.589Z,4.80
2023-03-05T18:55:37.998Z,4.53
2023-03-05T19:05:59.393Z,4.10
2023-03-05T19:16:23.620Z,5.35
2023-03-05T19:26:45.171Z,3.53
2023-03-05T19:37:06.977Z,4.27
2023-03-05T19:47:28.307Z,5.40
2023-03-05T19:57:49.849Z,7.30
2023-03-05T20:08:11.331Z,6.27
2023-03-05T20:18:32.793Z,3.75
2023-03-05T20:28:56.339Z,5.07
2023-03-05T20:39:17.917Z,4.17
2023-03-05T20:49:39.366Z,4.93
2023-03-05T21:00:00.750Z,2.30
2023-03-05T21:10:23.661Z,4.23
2023-03-05T21:20:45.217Z,2.27
2023-03-05T21:31:16.514Z,2.08
2023-03-05T21:41:38.074Z,3.53
2023-03-05T21:52:11.665Z,3.77
2023-03-05T22:02:33.007Z,4.45
2023-03-05T22:13:12.253Z,2.60
2023-03-05T22:23:36.721Z,3.80
2023-03-05T22:33:58.358Z,4.23
2023-03-05T22:44:19.914Z,2.90
2023-03-05T22:54:41.231Z,3.03
2023-03-05T23:05:03.505Z,2.57
2023-03-05T23:15:32.484Z,5.10
2023-03-05T23:25:53.813Z,4.53
2023-03-05T23:36:15.484Z,3.97
2023-03-05T23:46:37.034Z,5.45
2023-03-05T23:56:58.473Z,3.58
